Terminal Aerodrome Forecast
Issued by NWS Northern Indiana

Home | Current Version | Previous Version | Graphics & Text | Print | Product List | Glossary On
Versions: 1 2 3 4 5 6 7 8 9 10 11 12 13 14 15 16 17 18 19 20
000
FTUS43 KIWX 190500
TAFFWA
TAF
KFWA 190530Z 1906/2006 VRB02KT P6SM SCT035
     FM190900 00000KT 4SM BR BKN020
     FM191400 22010KT P6SM BKN040
     FM192200 22010KT P6SM VCTS BKN035CB
     FM200200 VRB03KT P6SM SCT035=

USA.gov is the U.S. government's official web portal to all federal, state and local government web resources and services.